PWSweather.com
Personal Weather Stations
Station Observations
133525
French Quarters West Seneca , West Seneca, NY 14224

French Quarters West Seneca West Seneca, NY 14224

Lat: 42.850058, Lon: -78.799754

Elevation: 603

Station Type: Davis Vantage Vue pro2

http://westsenecaweather.com/

High Low Average
Temperature 51.5°F10.8°C 35.5°F1.9°C 43.4°F6.3°C
Dew Point 38.7°F3.7°C 29.3°F-1.5°C 33.9°F1.1°C
Winds 10.4 mph 16.7 kmh Calm Calm 3.0 mph SW4.8 kmh SW
Wind Gusts 16.1 mph25.9 kmh -- 5.0 mph8.0 kmh
Humidity 94% 46% 70%
Pressure 30.05 in1017.6 mb 29.74 in1007.1 mb -
Precipitation 0.02 in0.5 mm - -
Hour Temp Dew Point Humidity Winds Wind Gusts Pressure Precip Precip Rate Daily Precip Total
12:00 AM 44.0°F6.7°C 30.6°F-0.8°C 59% 2.3 mph NW3.7 kmh NW 4.6 mph7.4 kmh 30.07 in1018.3 mb - 0.00 in0.0 mm 0.00 in0.0 mm
12:10 AM 44.0°F6.7°C 31.4°F-0.3°C 61% 2.3 mph NNW3.7 kmh NNW 3.5 mph5.6 kmh 30.07 in1018.3 mb - 0.00 in0.0 mm 0.00 in0.0 mm
12:15 AM 43.9°F6.6°C 31.3°F-0.4°C 61% 1.2 mph N1.9 kmh N 1.2 mph1.9 kmh 30.06 in1017.9 mb - 0.00 in0.0 mm 0.00 in0.0 mm
12:20 AM 43.7°F6.5°C 31.5°F-0.3°C 62% 1.2 mph N1.9 kmh N 2.3 mph3.7 kmh 30.05 in1017.6 mb - 0.00 in0.0 mm 0.00 in0.0 mm
12:25 AM 43.6°F6.4°C 31.8°F-0.1°C 63% 1.2 mph N1.9 kmh N 1.2 mph1.9 kmh 30.05 in1017.6 mb - 0.00 in0.0 mm 0.00 in0.0 mm
12:30 AM 43.4°F6.3°C 32.0°F0.0°C 64% 1.2 mph N1.9 kmh N 2.3 mph3.7 kmh 30.05 in1017.6 mb - 0.00 in0.0 mm 0.00 in0.0 mm
12:35 AM 43.2°F6.2°C 32.2°F0.1°C 65% Calm Calm 1.2 mph1.9 kmh 30.05 in1017.6 mb - 0.00 in0.0 mm 0.00 in0.0 mm
12:40 AM 43.1°F6.2°C 32.5°F0.3°C 66% Calm Calm -- 30.05 in1017.6 mb - 0.00 in0.0 mm 0.00 in0.0 mm
12:45 AM 42.8°F6.0°C 32.3°F0.2°C 66% Calm Calm -- 30.05 in1017.6 mb - 0.00 in0.0 mm 0.00 in0.0 mm
12:50 AM 42.7°F5.9°C 32.5°F0.3°C 67% Calm Calm -- 30.05 in1017.6 mb - 0.00 in0.0 mm 0.00 in0.0 mm
12:55 AM 42.5°F5.8°C 32.3°F0.2°C 67% Calm Calm -- 30.05 in1017.6 mb - 0.00 in0.0 mm 0.00 in0.0 mm
01:00 AM 42.3°F5.7°C 32.5°F0.3°C 68% Calm Calm -- 30.05 in1017.6 mb - 0.00 in0.0 mm 0.00 in0.0 mm
01:10 AM 41.9°F5.5°C 32.8°F0.4°C 70% Calm Calm -- 30.05 in1017.6 mb - 0.00 in0.0 mm 0.00 in0.0 mm
01:15 AM 41.8°F5.4°C 32.7°F0.4°C 70% Calm Calm -- 30.05 in1017.6 mb - 0.00 in0.0 mm 0.00 in0.0 mm
01:20 AM 41.6°F5.3°C 32.5°F0.3°C 70% Calm Calm -- 30.04 in1017.3 mb - 0.00 in0.0 mm 0.00 in0.0 mm
01:25 AM 41.6°F5.3°C 32.5°F0.3°C 70% Calm Calm -- 30.04 in1017.3 mb - 0.00 in0.0 mm 0.00 in0.0 mm
01:30 AM 41.6°F5.3°C 32.9°F0.5°C 71% Calm Calm -- 30.04 in1017.3 mb - 0.00 in0.0 mm 0.00 in0.0 mm
01:35 AM 41.4°F5.2°C 32.7°F0.4°C 71% Calm Calm -- 30.04 in1017.3 mb - 0.00 in0.0 mm 0.00 in0.0 mm
01:40 AM 41.3°F5.2°C 33.0°F0.6°C 72% Calm Calm -- 30.05 in1017.6 mb - 0.00 in0.0 mm 0.00 in0.0 mm
01:45 AM 41.2°F5.1°C 32.9°F0.5°C 72% Calm Calm -- 30.05 in1017.6 mb - 0.00 in0.0 mm 0.00 in0.0 mm
01:50 AM 41.1°F5.1°C 32.7°F0.4°C 72% Calm Calm -- 30.05 in1017.6 mb - 0.00 in0.0 mm 0.00 in0.0 mm
01:55 AM 40.9°F4.9°C 32.9°F0.5°C 73% Calm Calm -- 30.05 in1017.6 mb - 0.00 in0.0 mm 0.00 in0.0 mm
02:00 AM 40.8°F4.9°C 32.8°F0.4°C 73% Calm Calm -- 30.05 in1017.6 mb - 0.00 in0.0 mm 0.00 in0.0 mm
02:10 AM 40.6°F4.8°C 33.0°F0.6°C 74% Calm Calm -- 30.05 in1017.6 mb - 0.00 in0.0 mm 0.00 in0.0 mm
02:15 AM 40.5°F4.7°C 32.9°F0.5°C 74% Calm Calm -- 30.04 in1017.3 mb - 0.00 in0.0 mm 0.00 in0.0 mm
02:20 AM 40.5°F4.7°C 32.9°F0.5°C 74% Calm Calm -- 30.04 in1017.3 mb - 0.00 in0.0 mm 0.00 in0.0 mm
02:25 AM 40.4°F4.7°C 32.8°F0.4°C 74% Calm Calm -- 30.04 in1017.3 mb - 0.00 in0.0 mm 0.00 in0.0 mm
02:30 AM 40.4°F4.7°C 33.1°F0.6°C 75% Calm Calm -- 30.04 in1017.3 mb - 0.00 in0.0 mm 0.00 in0.0 mm
02:35 AM 40.4°F4.7°C 33.1°F0.6°C 75% Calm Calm -- 30.04 in1017.3 mb - 0.00 in0.0 mm 0.00 in0.0 mm
02:40 AM 40.5°F4.7°C 33.2°F0.7°C 75% 2.3 mph WSW3.7 kmh WSW 3.5 mph5.6 kmh 30.04 in1017.3 mb - 0.00 in0.0 mm 0.00 in0.0 mm
02:45 AM 40.7°F4.8°C 33.4°F0.8°C 75% 1.2 mph WSW1.9 kmh WSW 2.3 mph3.7 kmh 30.04 in1017.3 mb - 0.00 in0.0 mm 0.00 in0.0 mm
02:50 AM 40.8°F4.9°C 33.2°F0.7°C 74% 1.2 mph WSW1.9 kmh WSW 3.5 mph5.6 kmh 30.03 in1016.9 mb - 0.00 in0.0 mm 0.00 in0.0 mm
02:55 AM 40.9°F4.9°C 33.2°F0.7°C 74% 1.2 mph WSW1.9 kmh WSW 2.3 mph3.7 kmh 30.03 in1016.9 mb - 0.00 in0.0 mm 0.00 in0.0 mm
03:00 AM 40.9°F4.9°C 33.3°F0.7°C 74% 1.2 mph WSW1.9 kmh WSW 1.2 mph1.9 kmh 30.03 in1016.9 mb - 0.00 in0.0 mm 0.00 in0.0 mm
03:10 AM 41.1°F5.1°C 33.4°F0.8°C 74% Calm Calm 1.2 mph1.9 kmh 30.03 in1016.9 mb - 0.00 in0.0 mm 0.00 in0.0 mm
03:15 AM 41.1°F5.1°C 33.4°F0.8°C 74% Calm Calm -- 30.03 in1016.9 mb - 0.00 in0.0 mm 0.00 in0.0 mm
03:20 AM 41.0°F5.0°C 33.4°F0.8°C 74% Calm Calm -- 30.03 in1016.9 mb - 0.00 in0.0 mm 0.00 in0.0 mm
03:25 AM 41.0°F5.0°C 33.3°F0.7°C 74% Calm Calm -- 30.03 in1016.9 mb - 0.00 in0.0 mm 0.00 in0.0 mm
03:30 AM 41.0°F5.0°C 33.3°F0.7°C 74% 1.2 mph WSW1.9 kmh WSW 2.3 mph3.7 kmh 30.03 in1016.9 mb - 0.00 in0.0 mm 0.00 in0.0 mm
03:35 AM 40.9°F4.9°C 33.6°F0.9°C 75% 1.2 mph WSW1.9 kmh WSW 2.3 mph3.7 kmh 30.03 in1016.9 mb - 0.00 in0.0 mm 0.00 in0.0 mm
03:40 AM 40.7°F4.8°C 33.7°F0.9°C 76% 2.3 mph NNW3.7 kmh NNW 3.5 mph5.6 kmh 30.03 in1016.9 mb - 0.00 in0.0 mm 0.00 in0.0 mm
03:45 AM 40.4°F4.7°C 33.8°F1.0°C 77% 2.3 mph NNW3.7 kmh NNW 3.5 mph5.6 kmh 30.03 in1016.9 mb - 0.00 in0.0 mm 0.00 in0.0 mm
03:50 AM 40.4°F4.7°C 33.8°F1.0°C 77% 2.3 mph NW3.7 kmh NW 4.6 mph7.4 kmh 30.03 in1016.9 mb - 0.00 in0.0 mm 0.00 in0.0 mm
03:55 AM 40.6°F4.8°C 34.6°F1.4°C 79% 2.3 mph NW3.7 kmh NW 4.6 mph7.4 kmh 30.03 in1016.9 mb - 0.01 in0.3 mm 0.01 in0.3 mm
04:00 AM 40.6°F4.8°C 35.2°F1.8°C 81% 1.2 mph NW1.9 kmh NW 2.3 mph3.7 kmh 30.02 in1016.6 mb - 0.01 in0.3 mm 0.01 in0.3 mm
04:10 AM 40.3°F4.6°C 35.2°F1.8°C 82% 4.6 mph SW7.4 kmh SW 4.6 mph7.4 kmh 29.99 in1015.6 mb - 0.01 in0.3 mm 0.01 in0.3 mm
04:15 AM 40.1°F4.5°C 35.7°F2.1°C 84% 4.6 mph SW7.4 kmh SW 5.8 mph9.3 kmh 29.98 in1015.2 mb - 0.01 in0.3 mm 0.01 in0.3 mm
04:20 AM 40.1°F4.5°C 35.7°F2.1°C 84% 3.5 mph SSW5.6 kmh SSW 6.9 mph11.1 kmh 29.98 in1015.2 mb - 0.01 in0.3 mm 0.01 in0.3 mm
04:25 AM 40.0°F4.4°C 35.6°F2.0°C 84% 1.2 mph SW1.9 kmh SW 2.3 mph3.7 kmh 29.99 in1015.6 mb - 0.01 in0.3 mm 0.01 in0.3 mm
04:30 AM 40.0°F4.4°C 35.6°F2.0°C 84% 2.3 mph SW3.7 kmh SW 3.5 mph5.6 kmh 29.99 in1015.6 mb - 0.01 in0.3 mm 0.01 in0.3 mm
04:35 AM 39.9°F4.4°C 35.5°F1.9°C 84% 2.3 mph WSW3.7 kmh WSW 2.3 mph3.7 kmh 30.00 in1015.9 mb - 0.01 in0.3 mm 0.01 in0.3 mm
04:40 AM 39.8°F4.3°C 35.7°F2.1°C 85% 1.2 mph WSW1.9 kmh WSW 2.3 mph3.7 kmh 29.99 in1015.6 mb - 0.01 in0.3 mm 0.01 in0.3 mm
04:45 AM 39.8°F4.3°C 35.7°F2.1°C 85% 2.3 mph SW3.7 kmh SW 3.5 mph5.6 kmh 29.99 in1015.6 mb - 0.01 in0.3 mm 0.01 in0.3 mm
04:50 AM 39.7°F4.3°C 35.6°F2.0°C 85% 2.3 mph SW3.7 kmh SW 3.5 mph5.6 kmh 29.99 in1015.6 mb - 0.01 in0.3 mm 0.01 in0.3 mm
04:55 AM 39.7°F4.3°C 35.3°F1.8°C 84% 2.3 mph SW3.7 kmh SW 3.5 mph5.6 kmh 29.98 in1015.2 mb - 0.00 in0.0 mm 0.01 in0.3 mm
05:00 AM 39.7°F4.3°C 35.6°F2.0°C 85% 2.3 mph SW3.7 kmh SW 4.6 mph7.4 kmh 29.98 in1015.2 mb - 0.00 in0.0 mm 0.01 in0.3 mm
05:10 AM 39.6°F4.2°C 35.2°F1.8°C 84% 3.5 mph WSW5.6 kmh WSW 3.5 mph5.6 kmh 29.98 in1015.2 mb - 0.00 in0.0 mm 0.01 in0.3 mm
05:15 AM 39.5°F4.2°C 35.1°F1.7°C 84% 4.6 mph SW7.4 kmh SW 6.9 mph11.1 kmh 29.97 in1014.9 mb - 0.00 in0.0 mm 0.01 in0.3 mm
05:20 AM 39.5°F4.2°C 35.1°F1.7°C 84% 3.5 mph SW5.6 kmh SW 3.5 mph5.6 kmh 29.97 in1014.9 mb - 0.00 in0.0 mm 0.01 in0.3 mm
05:25 AM 39.5°F4.2°C 35.1°F1.7°C 84% 3.5 mph SW5.6 kmh SW 4.6 mph7.4 kmh 29.97 in1014.9 mb - 0.00 in0.0 mm 0.01 in0.3 mm
05:30 AM 39.4°F4.1°C 34.9°F1.6°C 84% 3.5 mph SW5.6 kmh SW 6.9 mph11.1 kmh 29.97 in1014.9 mb - 0.00 in0.0 mm 0.01 in0.3 mm
05:35 AM 39.2°F4.0°C 34.8°F1.6°C 84% 4.6 mph SW7.4 kmh SW 5.8 mph9.3 kmh 29.97 in1014.9 mb - 0.00 in0.0 mm 0.01 in0.3 mm
05:40 AM 39.1°F3.9°C 34.7°F1.5°C 84% 2.3 mph WSW3.7 kmh WSW 3.5 mph5.6 kmh 29.97 in1014.9 mb - 0.00 in0.0 mm 0.01 in0.3 mm
05:45 AM 38.9°F3.8°C 34.5°F1.4°C 84% 3.5 mph SW5.6 kmh SW 5.8 mph9.3 kmh 29.97 in1014.9 mb - 0.00 in0.0 mm 0.01 in0.3 mm
05:50 AM 38.7°F3.7°C 34.3°F1.3°C 84% 4.6 mph SW7.4 kmh SW 6.9 mph11.1 kmh 29.96 in1014.6 mb - 0.00 in0.0 mm 0.01 in0.3 mm
05:55 AM 38.7°F3.7°C 34.3°F1.3°C 84% 2.3 mph SW3.7 kmh SW 3.5 mph5.6 kmh 29.96 in1014.6 mb - 0.00 in0.0 mm 0.01 in0.3 mm
06:00 AM 38.6°F3.7°C 34.2°F1.2°C 84% 4.6 mph SW7.4 kmh SW 5.8 mph9.3 kmh 29.96 in1014.6 mb - 0.00 in0.0 mm 0.01 in0.3 mm
06:10 AM 38.7°F3.7°C 34.3°F1.3°C 84% 2.3 mph SSW3.7 kmh SSW 4.6 mph7.4 kmh 29.96 in1014.6 mb - 0.00 in0.0 mm 0.01 in0.3 mm
06:15 AM 38.7°F3.7°C 34.3°F1.3°C 84% 2.3 mph SW3.7 kmh SW 3.5 mph5.6 kmh 29.96 in1014.6 mb - 0.00 in0.0 mm 0.01 in0.3 mm
06:20 AM 38.6°F3.7°C 34.2°F1.2°C 84% 2.3 mph SW3.7 kmh SW 3.5 mph5.6 kmh 29.96 in1014.6 mb - 0.00 in0.0 mm 0.01 in0.3 mm
06:25 AM 38.6°F3.7°C 34.2°F1.2°C 84% 2.3 mph S3.7 kmh S 3.5 mph5.6 kmh 29.96 in1014.6 mb - 0.00 in0.0 mm 0.01 in0.3 mm
06:30 AM 38.7°F3.7°C 34.3°F1.3°C 84% 2.3 mph S3.7 kmh S 3.5 mph5.6 kmh 29.96 in1014.6 mb - 0.00 in0.0 mm 0.01 in0.3 mm
06:35 AM 38.8°F3.8°C 34.1°F1.2°C 83% 3.5 mph SSW5.6 kmh SSW 3.5 mph5.6 kmh 29.96 in1014.6 mb - 0.00 in0.0 mm 0.01 in0.3 mm
06:40 AM 38.8°F3.8°C 34.1°F1.2°C 83% 2.3 mph SW3.7 kmh SW 3.5 mph5.6 kmh 29.96 in1014.6 mb - 0.00 in0.0 mm 0.01 in0.3 mm
06:45 AM 38.9°F3.8°C 34.2°F1.2°C 83% 2.3 mph S3.7 kmh S 3.5 mph5.6 kmh 29.96 in1014.6 mb - 0.00 in0.0 mm 0.01 in0.3 mm
06:50 AM 39.0°F3.9°C 33.9°F1.1°C 82% 1.2 mph S1.9 kmh S 1.2 mph1.9 kmh 29.96 in1014.6 mb - 0.00 in0.0 mm 0.01 in0.3 mm
06:55 AM 39.0°F3.9°C 34.0°F1.1°C 82% 1.2 mph S1.9 kmh S 2.3 mph3.7 kmh 29.95 in1014.2 mb - 0.00 in0.0 mm 0.01 in0.3 mm
07:00 AM 39.0°F3.9°C 34.0°F1.1°C 82% 2.3 mph SSW3.7 kmh SSW 3.5 mph5.6 kmh 29.96 in1014.6 mb - 0.00 in0.0 mm 0.01 in0.3 mm
07:10 AM 39.0°F3.9°C 34.0°F1.1°C 82% 2.3 mph SSW3.7 kmh SSW 3.5 mph5.6 kmh 29.95 in1014.2 mb - 0.00 in0.0 mm 0.01 in0.3 mm
07:15 AM 39.1°F3.9°C 34.0°F1.1°C 82% 2.3 mph SSW3.7 kmh SSW 2.3 mph3.7 kmh 29.95 in1014.2 mb - 0.00 in0.0 mm 0.01 in0.3 mm
07:20 AM 39.1°F3.9°C 34.1°F1.2°C 82% 1.2 mph SSW1.9 kmh SSW 1.2 mph1.9 kmh 29.95 in1014.2 mb - 0.00 in0.0 mm 0.01 in0.3 mm
07:25 AM 39.1°F3.9°C 34.1°F1.2°C 82% 1.2 mph SSW1.9 kmh SSW 1.2 mph1.9 kmh 29.95 in1014.2 mb - 0.00 in0.0 mm 0.01 in0.3 mm
07:30 AM 39.1°F3.9°C 34.1°F1.2°C 82% 1.2 mph SSW1.9 kmh SSW 2.3 mph3.7 kmh 29.95 in1014.2 mb - 0.00 in0.0 mm 0.01 in0.3 mm
07:35 AM 39.2°F4.0°C 34.1°F1.2°C 82% 1.2 mph SSW1.9 kmh SSW 2.3 mph3.7 kmh 29.95 in1014.2 mb - 0.00 in0.0 mm 0.01 in0.3 mm
07:40 AM 39.2°F4.0°C 34.2°F1.2°C 82% 2.3 mph SSW3.7 kmh SSW 3.5 mph5.6 kmh 29.94 in1013.9 mb - 0.00 in0.0 mm 0.01 in0.3 mm
07:45 AM 39.3°F4.1°C 34.3°F1.3°C 82% 2.3 mph SSW3.7 kmh SSW 3.5 mph5.6 kmh 29.94 in1013.9 mb - 0.00 in0.0 mm 0.01 in0.3 mm
07:50 AM 39.5°F4.2°C 34.4°F1.3°C 82% 1.2 mph SSW1.9 kmh SSW 2.3 mph3.7 kmh 29.94 in1013.9 mb - 0.00 in0.0 mm 0.01 in0.3 mm
07:55 AM 39.6°F4.2°C 34.2°F1.2°C 81% 2.3 mph SSW3.7 kmh SSW 3.5 mph5.6 kmh 29.94 in1013.9 mb - 0.00 in0.0 mm 0.01 in0.3 mm
08:00 AM 39.8°F4.3°C 34.1°F1.2°C 80% 1.2 mph SSW1.9 kmh SSW 2.3 mph3.7 kmh 29.94 in1013.9 mb - 0.00 in0.0 mm 0.01 in0.3 mm
08:10 AM 40.6°F4.8°C 32.6°F0.3°C 73% 2.3 mph WSW3.7 kmh WSW 3.5 mph5.6 kmh 29.93 in1013.5 mb - 0.00 in0.0 mm 0.01 in0.3 mm
08:15 AM 41.3°F5.2°C 31.9°F-0.1°C 69% 3.5 mph WSW5.6 kmh WSW 4.6 mph7.4 kmh 29.93 in1013.5 mb - 0.00 in0.0 mm 0.01 in0.3 mm
08:20 AM 41.9°F5.5°C 31.4°F-0.3°C 66% 2.3 mph W3.7 kmh W 3.5 mph5.6 kmh 29.93 in1013.5 mb - 0.00 in0.0 mm 0.01 in0.3 mm
08:25 AM 42.2°F5.7°C 31.3°F-0.4°C 65% 2.3 mph WSW3.7 kmh WSW 4.6 mph7.4 kmh 29.93 in1013.5 mb - 0.00 in0.0 mm 0.01 in0.3 mm
08:30 AM 42.4°F5.8°C 31.1°F-0.5°C 64% 3.5 mph WSW5.6 kmh WSW 5.8 mph9.3 kmh 29.93 in1013.5 mb - 0.00 in0.0 mm 0.01 in0.3 mm
08:35 AM 42.6°F5.9°C 30.9°F-0.6°C 63% 2.3 mph W3.7 kmh W 4.6 mph7.4 kmh 29.93 in1013.5 mb - 0.00 in0.0 mm 0.01 in0.3 mm
08:40 AM 42.7°F5.9°C 30.6°F-0.8°C 62% 3.5 mph W5.6 kmh W 3.5 mph5.6 kmh 29.93 in1013.5 mb - 0.00 in0.0 mm 0.01 in0.3 mm
08:45 AM 42.8°F6.0°C 30.3°F-0.9°C 61% 3.5 mph WNW5.6 kmh WNW 4.6 mph7.4 kmh 29.93 in1013.5 mb - 0.00 in0.0 mm 0.01 in0.3 mm
08:50 AM 42.8°F6.0°C 30.3°F-0.9°C 61% 2.3 mph W3.7 kmh W 4.6 mph7.4 kmh 29.93 in1013.5 mb - 0.00 in0.0 mm 0.01 in0.3 mm
08:55 AM 42.9°F6.1°C 30.0°F-1.1°C 60% 3.5 mph W5.6 kmh W 5.8 mph9.3 kmh 29.93 in1013.5 mb - 0.00 in0.0 mm 0.01 in0.3 mm
09:00 AM 43.1°F6.2°C 29.7°F-1.3°C 59% 5.8 mph W9.3 kmh W 5.8 mph9.3 kmh 29.92 in1013.2 mb - 0.00 in0.0 mm 0.01 in0.3 mm
09:10 AM 43.3°F6.3°C 29.9°F-1.2°C 59% 4.6 mph WNW7.4 kmh WNW 5.8 mph9.3 kmh 29.92 in1013.2 mb - 0.00 in0.0 mm 0.01 in0.3 mm
09:15 AM 43.5°F6.4°C 29.7°F-1.3°C 58% 3.5 mph W5.6 kmh W 4.6 mph7.4 kmh 29.92 in1013.2 mb - 0.00 in0.0 mm 0.01 in0.3 mm
09:20 AM 43.7°F6.5°C 29.9°F-1.2°C 58% 4.6 mph WSW7.4 kmh WSW 5.8 mph9.3 kmh 29.92 in1013.2 mb - 0.00 in0.0 mm 0.01 in0.3 mm
09:25 AM 44.0°F6.7°C 29.7°F-1.3°C 57% 3.5 mph NW5.6 kmh NW 6.9 mph11.1 kmh 29.92 in1013.2 mb - 0.00 in0.0 mm 0.01 in0.3 mm
09:30 AM 44.2°F6.8°C 29.9°F-1.2°C 57% 3.5 mph W5.6 kmh W 4.6 mph7.4 kmh 29.92 in1013.2 mb - 0.00 in0.0 mm 0.01 in0.3 mm
09:35 AM 44.4°F6.9°C 29.3°F-1.5°C 55% 4.6 mph W7.4 kmh W 4.6 mph7.4 kmh 29.92 in1013.2 mb - 0.00 in0.0 mm 0.01 in0.3 mm
09:40 AM 44.7°F7.1°C 29.9°F-1.2°C 56% 4.6 mph NW7.4 kmh NW 5.8 mph9.3 kmh 29.92 in1013.2 mb - 0.00 in0.0 mm 0.01 in0.3 mm
09:45 AM 44.9°F7.2°C 29.7°F-1.3°C 55% 3.5 mph WSW5.6 kmh WSW 3.5 mph5.6 kmh 29.92 in1013.2 mb - 0.00 in0.0 mm 0.01 in0.3 mm
09:50 AM 45.1°F7.3°C 29.9°F-1.2°C 55% 3.5 mph WNW5.6 kmh WNW 5.8 mph9.3 kmh 29.92 in1013.2 mb - 0.00 in0.0 mm 0.01 in0.3 mm
09:55 AM 45.3°F7.4°C 30.0°F-1.1°C 55% 3.5 mph WNW5.6 kmh WNW 5.8 mph9.3 kmh 29.92 in1013.2 mb - 0.00 in0.0 mm 0.01 in0.3 mm
10:00 AM 45.5°F7.5°C 30.2°F-1.0°C 55% 4.6 mph WNW7.4 kmh WNW 6.9 mph11.1 kmh 29.92 in1013.2 mb - 0.00 in0.0 mm 0.01 in0.3 mm
10:10 AM 46.0°F7.8°C 30.7°F-0.7°C 55% 2.3 mph WNW3.7 kmh WNW 3.5 mph5.6 kmh 29.92 in1013.2 mb - 0.00 in0.0 mm 0.01 in0.3 mm
10:15 AM 46.5°F8.1°C 30.8°F-0.7°C 54% 3.5 mph NW5.6 kmh NW 6.9 mph11.1 kmh 29.92 in1013.2 mb - 0.00 in0.0 mm 0.01 in0.3 mm
10:20 AM 47.0°F8.3°C 30.2°F-1.0°C 52% 5.8 mph NW9.3 kmh NW 11.5 mph18.5 kmh 29.92 in1013.2 mb - 0.00 in0.0 mm 0.01 in0.3 mm
10:25 AM 47.2°F8.4°C 29.5°F-1.4°C 50% 6.9 mph W11.1 kmh W 8.1 mph13.0 kmh 29.92 in1013.2 mb - 0.00 in0.0 mm 0.01 in0.3 mm
10:30 AM 47.3°F8.5°C 29.6°F-1.3°C 50% 5.8 mph WNW9.3 kmh WNW 9.2 mph14.8 kmh 29.92 in1013.2 mb - 0.00 in0.0 mm 0.01 in0.3 mm
10:35 AM 47.4°F8.6°C 29.7°F-1.3°C 50% 3.5 mph W5.6 kmh W 8.1 mph13.0 kmh 29.92 in1013.2 mb - 0.00 in0.0 mm 0.01 in0.3 mm
10:40 AM 47.7°F8.7°C 30.0°F-1.1°C 50% 4.6 mph W7.4 kmh W 6.9 mph11.1 kmh 29.92 in1013.2 mb - 0.00 in0.0 mm 0.01 in0.3 mm
10:45 AM 48.0°F8.9°C 29.7°F-1.3°C 49% 4.6 mph WNW7.4 kmh WNW 8.1 mph13.0 kmh 29.91 in1012.9 mb - 0.00 in0.0 mm 0.01 in0.3 mm
10:50 AM 48.2°F9.0°C 30.0°F-1.1°C 49% 5.8 mph NW9.3 kmh NW 8.1 mph13.0 kmh 29.91 in1012.9 mb - 0.01 in0.3 mm 0.02 in0.5 mm
10:55 AM 48.7°F9.3°C 29.8°F-1.2°C 48% 5.8 mph NW9.3 kmh NW 6.9 mph11.1 kmh 29.91 in1012.9 mb - 0.01 in0.3 mm 0.02 in0.5 mm
11:00 AM 48.8°F9.3°C 30.5°F-0.8°C 49% 3.5 mph NNW5.6 kmh NNW 4.6 mph7.4 kmh 29.91 in1012.9 mb - 0.01 in0.3 mm 0.02 in0.5 mm
11:10 AM 49.4°F9.7°C 29.5°F-1.4°C 46% 6.9 mph WNW11.1 kmh WNW 10.4 mph16.7 kmh 29.91 in1012.9 mb - 0.01 in0.3 mm 0.02 in0.5 mm
11:15 AM 49.5°F9.7°C 30.1°F-1.1°C 47% 6.9 mph NW11.1 kmh NW 9.2 mph14.8 kmh 29.90 in1012.5 mb - 0.01 in0.3 mm 0.02 in0.5 mm
11:20 AM 49.8°F9.9°C 30.9°F-0.6°C 48% 4.6 mph NW7.4 kmh NW 9.2 mph14.8 kmh 29.90 in1012.5 mb - 0.01 in0.3 mm 0.02 in0.5 mm
11:25 AM 49.9°F9.9°C 30.5°F-0.8°C 47% 4.6 mph NW7.4 kmh NW 4.6 mph7.4 kmh 29.90 in1012.5 mb - 0.01 in0.3 mm 0.02 in0.5 mm
11:30 AM 50.1°F10.1°C 31.7°F-0.2°C 49% 3.5 mph WNW5.6 kmh WNW 9.2 mph14.8 kmh 29.90 in1012.5 mb - 0.01 in0.3 mm 0.02 in0.5 mm
11:35 AM 50.5°F10.3°C 32.5°F0.3°C 50% 4.6 mph WNW7.4 kmh WNW 6.9 mph11.1 kmh 29.90 in1012.5 mb - 0.01 in0.3 mm 0.02 in0.5 mm
11:40 AM 50.9°F10.5°C 32.4°F0.2°C 49% 5.8 mph NNW9.3 kmh NNW 10.4 mph16.7 kmh 29.90 in1012.5 mb - 0.01 in0.3 mm 0.02 in0.5 mm
11:45 AM 51.1°F10.6°C 33.1°F0.6°C 50% 5.8 mph WNW9.3 kmh WNW 12.7 mph20.4 kmh 29.89 in1012.2 mb - 0.01 in0.3 mm 0.02 in0.5 mm
11:50 AM 51.0°F10.6°C 33.0°F0.6°C 50% 5.8 mph NNW9.3 kmh NNW 8.1 mph13.0 kmh 29.89 in1012.2 mb - 0.00 in0.0 mm 0.02 in0.5 mm
11:55 AM 51.0°F10.6°C 33.0°F0.6°C 50% 5.8 mph NNW9.3 kmh NNW 11.5 mph18.5 kmh 29.89 in1012.2 mb - 0.00 in0.0 mm 0.02 in0.5 mm
12:00 PM 51.1°F10.6°C 33.6°F0.9°C 51% 5.8 mph NNW9.3 kmh NNW 13.8 mph22.2 kmh 29.89 in1012.2 mb - 0.00 in0.0 mm 0.02 in0.5 mm
12:10 PM 50.7°F10.4°C 33.2°F0.7°C 51% 10.4 mph NW16.7 kmh NW 16.1 mph25.9 kmh 29.89 in1012.2 mb - 0.00 in0.0 mm 0.02 in0.5 mm
12:15 PM 50.4°F10.2°C 33.4°F0.8°C 52% 6.9 mph NNW11.1 kmh NNW 11.5 mph18.5 kmh 29.89 in1012.2 mb - 0.00 in0.0 mm 0.02 in0.5 mm
12:20 PM 50.6°F10.3°C 34.0°F1.1°C 53% 4.6 mph NW7.4 kmh NW 10.4 mph16.7 kmh 29.89 in1012.2 mb - 0.00 in0.0 mm 0.02 in0.5 mm
12:25 PM 50.7°F10.4°C 33.7°F0.9°C 52% 8.1 mph NW13.0 kmh NW 12.7 mph20.4 kmh 29.89 in1012.2 mb - 0.00 in0.0 mm 0.02 in0.5 mm
12:30 PM 50.6°F10.3°C 34.1°F1.2°C 53% 6.9 mph NNW11.1 kmh NNW 10.4 mph16.7 kmh 29.88 in1011.9 mb - 0.00 in0.0 mm 0.02 in0.5 mm
12:35 PM 50.5°F10.3°C 34.4°F1.3°C 54% 5.8 mph NNW9.3 kmh NNW 10.4 mph16.7 kmh 29.88 in1011.9 mb - 0.00 in0.0 mm 0.02 in0.5 mm
12:40 PM 50.3°F10.2°C 34.8°F1.6°C 55% 8.1 mph NNW13.0 kmh NNW 10.4 mph16.7 kmh 29.88 in1011.9 mb - 0.00 in0.0 mm 0.02 in0.5 mm
12:45 PM 50.3°F10.2°C 35.2°F1.8°C 56% 5.8 mph NW9.3 kmh NW 10.4 mph16.7 kmh 29.88 in1011.9 mb - 0.00 in0.0 mm 0.02 in0.5 mm
12:50 PM 50.2°F10.1°C 35.1°F1.7°C 56% 6.9 mph NW11.1 kmh NW 10.4 mph16.7 kmh 29.88 in1011.9 mb - 0.00 in0.0 mm 0.02 in0.5 mm
12:55 PM 50.2°F10.1°C 35.5°F1.9°C 57% 4.6 mph NW7.4 kmh NW 8.1 mph13.0 kmh 29.87 in1011.5 mb - 0.00 in0.0 mm 0.02 in0.5 mm
01:00 PM 50.3°F10.2°C 35.6°F2.0°C 57% 4.6 mph NNW7.4 kmh NNW 4.6 mph7.4 kmh 29.87 in1011.5 mb - 0.00 in0.0 mm 0.02 in0.5 mm
01:10 PM 50.8°F10.4°C 36.5°F2.5°C 58% 5.8 mph NNW9.3 kmh NNW 8.1 mph13.0 kmh 29.87 in1011.5 mb - 0.00 in0.0 mm 0.02 in0.5 mm
01:15 PM 51.0°F10.6°C 36.7°F2.6°C 58% 4.6 mph NW7.4 kmh NW 5.8 mph9.3 kmh 29.86 in1011.2 mb - 0.00 in0.0 mm 0.02 in0.5 mm
01:20 PM 51.2°F10.7°C 37.4°F3.0°C 59% 5.8 mph NW9.3 kmh NW 8.1 mph13.0 kmh 29.86 in1011.2 mb - 0.00 in0.0 mm 0.02 in0.5 mm
01:25 PM 51.5°F10.8°C 37.6°F3.1°C 59% 3.5 mph NNW5.6 kmh NNW 11.5 mph18.5 kmh 29.86 in1011.2 mb - 0.00 in0.0 mm 0.02 in0.5 mm
01:30 PM 51.4°F10.8°C 38.0°F3.3°C 60% 4.6 mph NNW7.4 kmh NNW 9.2 mph14.8 kmh 29.86 in1011.2 mb - 0.00 in0.0 mm 0.02 in0.5 mm
01:35 PM 51.3°F10.7°C 37.9°F3.3°C 60% 5.8 mph NNW9.3 kmh NNW 9.2 mph14.8 kmh 29.86 in1011.2 mb - 0.00 in0.0 mm 0.02 in0.5 mm
01:40 PM 51.1°F10.6°C 37.7°F3.2°C 60% 5.8 mph NNW9.3 kmh NNW 11.5 mph18.5 kmh 29.86 in1011.2 mb - 0.00 in0.0 mm 0.02 in0.5 mm
01:45 PM 51.0°F10.6°C 37.6°F3.1°C 60% 5.8 mph NW9.3 kmh NW 8.1 mph13.0 kmh 29.86 in1011.2 mb - 0.00 in0.0 mm 0.02 in0.5 mm
01:50 PM 50.9°F10.5°C 37.9°F3.3°C 61% 5.8 mph NNW9.3 kmh NNW 8.1 mph13.0 kmh 29.85 in1010.8 mb - 0.00 in0.0 mm 0.02 in0.5 mm
01:55 PM 50.8°F10.4°C 37.8°F3.2°C 61% 6.9 mph NNW11.1 kmh NNW 9.2 mph14.8 kmh 29.85 in1010.8 mb - 0.00 in0.0 mm 0.02 in0.5 mm
02:00 PM 50.6°F10.3°C 38.1°F3.4°C 62% 3.5 mph NNW5.6 kmh NNW 6.9 mph11.1 kmh 29.85 in1010.8 mb - 0.00 in0.0 mm 0.02 in0.5 mm
02:10 PM 50.7°F10.4°C 38.2°F3.4°C 62% 3.5 mph NW5.6 kmh NW 3.5 mph5.6 kmh 29.84 in1010.5 mb - 0.00 in0.0 mm 0.02 in0.5 mm
02:15 PM 50.9°F10.5°C 38.7°F3.7°C 63% 4.6 mph NNW7.4 kmh NNW 8.1 mph13.0 kmh 29.84 in1010.5 mb - 0.00 in0.0 mm 0.02 in0.5 mm
02:20 PM 51.1°F10.6°C 38.5°F3.6°C 62% 4.6 mph NE7.4 kmh NE 8.1 mph13.0 kmh 29.84 in1010.5 mb - 0.00 in0.0 mm 0.02 in0.5 mm
02:25 PM 50.9°F10.5°C 37.9°F3.3°C 61% 2.3 mph NNW3.7 kmh NNW 3.5 mph5.6 kmh 29.84 in1010.5 mb - 0.00 in0.0 mm 0.02 in0.5 mm
02:30 PM 50.9°F10.5°C 37.9°F3.3°C 61% 3.5 mph NNE5.6 kmh NNE 6.9 mph11.1 kmh 29.83 in1010.2 mb - 0.00 in0.0 mm 0.02 in0.5 mm
02:35 PM 51.0°F10.6°C 37.6°F3.1°C 60% 5.8 mph NE9.3 kmh NE 8.1 mph13.0 kmh 29.83 in1010.2 mb - 0.00 in0.0 mm 0.02 in0.5 mm
02:40 PM 50.9°F10.5°C 37.5°F3.1°C 60% 3.5 mph NE5.6 kmh NE 8.1 mph13.0 kmh 29.83 in1010.2 mb - 0.00 in0.0 mm 0.02 in0.5 mm
02:45 PM 50.8°F10.4°C 37.4°F3.0°C 60% 4.6 mph NE7.4 kmh NE 6.9 mph11.1 kmh 29.83 in1010.2 mb - 0.00 in0.0 mm 0.02 in0.5 mm
02:50 PM 50.8°F10.4°C 37.4°F3.0°C 60% 3.5 mph N5.6 kmh N 3.5 mph5.6 kmh 29.82 in1009.8 mb - 0.00 in0.0 mm 0.02 in0.5 mm
02:55 PM 50.9°F10.5°C 37.5°F3.1°C 60% 4.6 mph N7.4 kmh N 5.8 mph9.3 kmh 29.82 in1009.8 mb - 0.00 in0.0 mm 0.02 in0.5 mm
03:00 PM 51.1°F10.6°C 38.1°F3.4°C 61% 3.5 mph N5.6 kmh N 4.6 mph7.4 kmh 29.82 in1009.8 mb - 0.00 in0.0 mm 0.02 in0.5 mm
03:10 PM 50.9°F10.5°C 37.5°F3.1°C 60% 3.5 mph NE5.6 kmh NE 3.5 mph5.6 kmh 29.81 in1009.5 mb - 0.00 in0.0 mm 0.02 in0.5 mm
03:15 PM 50.9°F10.5°C 37.9°F3.3°C 61% 2.3 mph NNE3.7 kmh NNE 3.5 mph5.6 kmh 29.81 in1009.5 mb - 0.00 in0.0 mm 0.02 in0.5 mm
03:20 PM 50.9°F10.5°C 37.5°F3.1°C 60% 4.6 mph NE7.4 kmh NE 11.5 mph18.5 kmh 29.81 in1009.5 mb - 0.00 in0.0 mm 0.02 in0.5 mm
03:25 PM 50.6°F10.3°C 37.2°F2.9°C 60% 2.3 mph N3.7 kmh N 4.6 mph7.4 kmh 29.81 in1009.5 mb - 0.00 in0.0 mm 0.02 in0.5 mm
03:30 PM 50.6°F10.3°C 37.6°F3.1°C 61% 2.3 mph N3.7 kmh N 3.5 mph5.6 kmh 29.81 in1009.5 mb - 0.00 in0.0 mm 0.02 in0.5 mm
03:35 PM 50.6°F10.3°C 37.2°F2.9°C 60% 3.5 mph NE5.6 kmh NE 3.5 mph5.6 kmh 29.81 in1009.5 mb - 0.00 in0.0 mm 0.02 in0.5 mm
03:40 PM 50.5°F10.3°C 37.5°F3.1°C 61% 1.2 mph N1.9 kmh N 3.5 mph5.6 kmh 29.81 in1009.5 mb - 0.00 in0.0 mm 0.02 in0.5 mm
03:45 PM 50.5°F10.3°C 38.0°F3.3°C 62% 3.5 mph NNW5.6 kmh NNW 3.5 mph5.6 kmh 29.81 in1009.5 mb - 0.00 in0.0 mm 0.02 in0.5 mm
03:50 PM 50.5°F10.3°C 37.5°F3.1°C 61% 3.5 mph N5.6 kmh N 3.5 mph5.6 kmh 29.81 in1009.5 mb - 0.00 in0.0 mm 0.02 in0.5 mm
03:55 PM 50.3°F10.2°C 37.8°F3.2°C 62% 4.6 mph NE7.4 kmh NE 9.2 mph14.8 kmh 29.81 in1009.5 mb - 0.00 in0.0 mm 0.02 in0.5 mm
04:00 PM 50.0°F10.0°C 37.5°F3.1°C 62% 4.6 mph NE7.4 kmh NE 4.6 mph7.4 kmh 29.81 in1009.5 mb - 0.00 in0.0 mm 0.02 in0.5 mm
04:10 PM 49.8°F9.9°C 37.7°F3.2°C 63% 1.2 mph NNE1.9 kmh NNE 3.5 mph5.6 kmh 29.80 in1009.1 mb - 0.00 in0.0 mm 0.02 in0.5 mm
04:15 PM 49.8°F9.9°C 37.7°F3.2°C 63% 1.2 mph NNE1.9 kmh NNE 2.3 mph3.7 kmh 29.80 in1009.1 mb - 0.00 in0.0 mm 0.02 in0.5 mm
04:20 PM 49.7°F9.8°C 37.2°F2.9°C 62% 2.3 mph N3.7 kmh N 3.5 mph5.6 kmh 29.80 in1009.1 mb - 0.00 in0.0 mm 0.02 in0.5 mm
04:25 PM 49.6°F9.8°C 37.1°F2.8°C 62% 2.3 mph N3.7 kmh N 3.5 mph5.6 kmh 29.80 in1009.1 mb - 0.00 in0.0 mm 0.02 in0.5 mm
04:30 PM 49.4°F9.7°C 37.3°F2.9°C 63% 3.5 mph NE5.6 kmh NE 5.8 mph9.3 kmh 29.80 in1009.1 mb - 0.00 in0.0 mm 0.02 in0.5 mm
04:35 PM 48.8°F9.3°C 36.4°F2.4°C 62% 2.3 mph ENE3.7 kmh ENE 3.5 mph5.6 kmh 29.79 in1008.8 mb - 0.00 in0.0 mm 0.02 in0.5 mm
04:40 PM 48.6°F9.2°C 35.7°F2.1°C 61% 2.3 mph N3.7 kmh N 3.5 mph5.6 kmh 29.79 in1008.8 mb - 0.00 in0.0 mm 0.02 in0.5 mm
04:45 PM 48.4°F9.1°C 35.1°F1.7°C 60% 1.2 mph N1.9 kmh N 3.5 mph5.6 kmh 29.79 in1008.8 mb - 0.00 in0.0 mm 0.02 in0.5 mm
04:50 PM 48.1°F8.9°C 34.0°F1.1°C 58% 2.3 mph N3.7 kmh N 3.5 mph5.6 kmh 29.79 in1008.8 mb - 0.00 in0.0 mm 0.02 in0.5 mm
04:55 PM 48.0°F8.9°C 33.9°F1.1°C 58% 1.2 mph N1.9 kmh N 2.3 mph3.7 kmh 29.79 in1008.8 mb - 0.00 in0.0 mm 0.02 in0.5 mm
05:00 PM 47.9°F8.8°C 33.8°F1.0°C 58% 2.3 mph N3.7 kmh N 4.6 mph7.4 kmh 29.79 in1008.8 mb - 0.00 in0.0 mm 0.02 in0.5 mm
05:10 PM 47.3°F8.5°C 32.8°F0.4°C 57% 1.2 mph N1.9 kmh N 3.5 mph5.6 kmh 29.79 in1008.8 mb - 0.00 in0.0 mm 0.02 in0.5 mm
05:15 PM 47.1°F8.4°C 32.2°F0.1°C 56% 1.2 mph N1.9 kmh N 3.5 mph5.6 kmh 29.79 in1008.8 mb - 0.00 in0.0 mm 0.02 in0.5 mm
05:20 PM 46.9°F8.3°C 32.0°F0.0°C 56% 1.2 mph N1.9 kmh N 3.5 mph5.6 kmh 29.79 in1008.8 mb - 0.00 in0.0 mm 0.02 in0.5 mm
05:25 PM 46.7°F8.2°C 31.8°F-0.1°C 56% 1.2 mph N1.9 kmh N 2.3 mph3.7 kmh 29.79 in1008.8 mb - 0.00 in0.0 mm 0.02 in0.5 mm
05:30 PM 46.4°F8.0°C 32.0°F0.0°C 57% 2.3 mph NNW3.7 kmh NNW 3.5 mph5.6 kmh 29.79 in1008.8 mb - 0.00 in0.0 mm 0.02 in0.5 mm
05:35 PM 46.0°F7.8°C 32.0°F0.0°C 58% 3.5 mph NNW5.6 kmh NNW 4.6 mph7.4 kmh 29.79 in1008.8 mb - 0.00 in0.0 mm 0.02 in0.5 mm
05:40 PM 45.7°F7.6°C 32.2°F0.1°C 59% 3.5 mph NNW5.6 kmh NNW 4.6 mph7.4 kmh 29.79 in1008.8 mb - 0.00 in0.0 mm 0.02 in0.5 mm
05:45 PM 45.4°F7.4°C 32.7°F0.4°C 61% 3.5 mph NW5.6 kmh NW 4.6 mph7.4 kmh 29.79 in1008.8 mb - 0.00 in0.0 mm 0.02 in0.5 mm
05:50 PM 45.2°F7.3°C 32.5°F0.3°C 61% 5.8 mph NNW9.3 kmh NNW 6.9 mph11.1 kmh 29.79 in1008.8 mb - 0.00 in0.0 mm 0.02 in0.5 mm
05:55 PM 44.8°F7.1°C 32.6°F0.3°C 62% 4.6 mph NW7.4 kmh NW 4.6 mph7.4 kmh 29.79 in1008.8 mb - 0.00 in0.0 mm 0.02 in0.5 mm
06:00 PM 44.5°F6.9°C 32.7°F0.4°C 63% 3.5 mph NW5.6 kmh NW 4.6 mph7.4 kmh 29.79 in1008.8 mb - 0.00 in0.0 mm 0.02 in0.5 mm
06:10 PM 44.2°F6.8°C 32.8°F0.4°C 64% 3.5 mph NNW5.6 kmh NNW 3.5 mph5.6 kmh 29.79 in1008.8 mb - 0.00 in0.0 mm 0.02 in0.5 mm
06:15 PM 44.1°F6.7°C 33.1°F0.6°C 65% 2.3 mph NNW3.7 kmh NNW 5.8 mph9.3 kmh 29.79 in1008.8 mb - 0.00 in0.0 mm 0.02 in0.5 mm
06:20 PM 44.1°F6.7°C 33.1°F0.6°C 65% 3.5 mph NW5.6 kmh NW 3.5 mph5.6 kmh 29.79 in1008.8 mb - 0.00 in0.0 mm 0.02 in0.5 mm
06:25 PM 44.1°F6.7°C 33.1°F0.6°C 65% 1.2 mph NW1.9 kmh NW 5.8 mph9.3 kmh 29.79 in1008.8 mb - 0.00 in0.0 mm 0.02 in0.5 mm
06:30 PM 44.1°F6.7°C 33.5°F0.8°C 66% 1.2 mph NW1.9 kmh NW 2.3 mph3.7 kmh 29.79 in1008.8 mb - 0.00 in0.0 mm 0.02 in0.5 mm
06:35 PM 44.1°F6.7°C 33.5°F0.8°C 66% 2.3 mph NE3.7 kmh NE 3.5 mph5.6 kmh 29.79 in1008.8 mb - 0.00 in0.0 mm 0.02 in0.5 mm
06:40 PM 44.2°F6.8°C 33.6°F0.9°C 66% 1.2 mph N1.9 kmh N 2.3 mph3.7 kmh 29.78 in1008.5 mb - 0.00 in0.0 mm 0.02 in0.5 mm
06:45 PM 44.2°F6.8°C 33.5°F0.8°C 66% 1.2 mph N1.9 kmh N 2.3 mph3.7 kmh 29.79 in1008.8 mb - 0.00 in0.0 mm 0.02 in0.5 mm
06:50 PM 44.1°F6.7°C 33.5°F0.8°C 66% 3.5 mph NE5.6 kmh NE 4.6 mph7.4 kmh 29.79 in1008.8 mb - 0.00 in0.0 mm 0.02 in0.5 mm
06:55 PM 43.9°F6.6°C 33.3°F0.7°C 66% 2.3 mph NE3.7 kmh NE 2.3 mph3.7 kmh 29.79 in1008.8 mb - 0.00 in0.0 mm 0.02 in0.5 mm
07:00 PM 43.9°F6.6°C 33.6°F0.9°C 67% 1.2 mph NE1.9 kmh NE 2.3 mph3.7 kmh 29.79 in1008.8 mb - 0.00 in0.0 mm 0.02 in0.5 mm
07:10 PM 43.8°F6.6°C 33.2°F0.7°C 66% 2.3 mph N3.7 kmh N 3.5 mph5.6 kmh 29.79 in1008.8 mb - 0.00 in0.0 mm 0.02 in0.5 mm
07:15 PM 43.7°F6.5°C 33.5°F0.8°C 67% 1.2 mph N1.9 kmh N 2.3 mph3.7 kmh 29.78 in1008.5 mb - 0.00 in0.0 mm 0.02 in0.5 mm
07:20 PM 43.6°F6.4°C 33.0°F0.6°C 66% 1.2 mph NNE1.9 kmh NNE 3.5 mph5.6 kmh 29.79 in1008.8 mb - 0.00 in0.0 mm 0.02 in0.5 mm
07:25 PM 43.5°F6.4°C 32.9°F0.5°C 66% 2.3 mph NNE3.7 kmh NNE 3.5 mph5.6 kmh 29.78 in1008.5 mb - 0.00 in0.0 mm 0.02 in0.5 mm
07:30 PM 43.4°F6.3°C 32.8°F0.4°C 66% 2.3 mph NNE3.7 kmh NNE 3.5 mph5.6 kmh 29.79 in1008.8 mb - 0.00 in0.0 mm 0.02 in0.5 mm
07:35 PM 43.3°F6.3°C 32.7°F0.4°C 66% 2.3 mph NE3.7 kmh NE 3.5 mph5.6 kmh 29.78 in1008.5 mb - 0.00 in0.0 mm 0.02 in0.5 mm
07:40 PM 43.1°F6.2°C 32.1°F0.1°C 65% 2.3 mph NE3.7 kmh NE 3.5 mph5.6 kmh 29.78 in1008.5 mb - 0.00 in0.0 mm 0.02 in0.5 mm
07:45 PM 42.9°F6.1°C 31.6°F-0.2°C 64% 2.3 mph NE3.7 kmh NE 4.6 mph7.4 kmh 29.78 in1008.5 mb - 0.00 in0.0 mm 0.02 in0.5 mm
07:50 PM 42.8°F6.0°C 31.5°F-0.3°C 64% 2.3 mph N3.7 kmh N 2.3 mph3.7 kmh 29.78 in1008.5 mb - 0.00 in0.0 mm 0.02 in0.5 mm
07:55 PM 42.6°F5.9°C 31.7°F-0.2°C 65% 3.5 mph N5.6 kmh N 3.5 mph5.6 kmh 29.78 in1008.5 mb - 0.00 in0.0 mm 0.02 in0.5 mm
08:00 PM 42.4°F5.8°C 31.8°F-0.1°C 66% 2.3 mph NE3.7 kmh NE 3.5 mph5.6 kmh 29.78 in1008.5 mb - 0.00 in0.0 mm 0.02 in0.5 mm
08:10 PM 41.9°F5.5°C 32.1°F0.1°C 68% 2.3 mph NNE3.7 kmh NNE 3.5 mph5.6 kmh 29.78 in1008.5 mb - 0.00 in0.0 mm 0.02 in0.5 mm
08:15 PM 41.7°F5.4°C 32.3°F0.2°C 69% 2.3 mph NNE3.7 kmh NNE 3.5 mph5.6 kmh 29.78 in1008.5 mb - 0.00 in0.0 mm 0.02 in0.5 mm
08:20 PM 41.4°F5.2°C 32.3°F0.2°C 70% 2.3 mph N3.7 kmh N 3.5 mph5.6 kmh 29.78 in1008.5 mb - 0.00 in0.0 mm 0.02 in0.5 mm
08:25 PM 41.2°F5.1°C 32.2°F0.1°C 70% 2.3 mph N3.7 kmh N 3.5 mph5.6 kmh 29.78 in1008.5 mb - 0.00 in0.0 mm 0.02 in0.5 mm
08:30 PM 41.1°F5.1°C 32.1°F0.1°C 70% 2.3 mph N3.7 kmh N 3.5 mph5.6 kmh 29.78 in1008.5 mb - 0.00 in0.0 mm 0.02 in0.5 mm
08:35 PM 41.1°F5.1°C 32.4°F0.2°C 71% 1.2 mph N1.9 kmh N 3.5 mph5.6 kmh 29.78 in1008.5 mb - 0.00 in0.0 mm 0.02 in0.5 mm
08:40 PM 41.1°F5.1°C 32.4°F0.2°C 71% 2.3 mph NE3.7 kmh NE 6.9 mph11.1 kmh 29.78 in1008.5 mb - 0.00 in0.0 mm 0.02 in0.5 mm
08:45 PM 41.0°F5.0°C 32.7°F0.4°C 72% 3.5 mph NNE5.6 kmh NNE 4.6 mph7.4 kmh 29.78 in1008.5 mb - 0.00 in0.0 mm 0.02 in0.5 mm
08:50 PM 40.9°F4.9°C 32.9°F0.5°C 73% 2.3 mph NNW3.7 kmh NNW 3.5 mph5.6 kmh 29.79 in1008.8 mb - 0.00 in0.0 mm 0.02 in0.5 mm
08:55 PM 40.8°F4.9°C 33.5°F0.8°C 75% 1.2 mph N1.9 kmh N 3.5 mph5.6 kmh 29.79 in1008.8 mb - 0.00 in0.0 mm 0.02 in0.5 mm
09:00 PM 40.7°F4.8°C 33.7°F0.9°C 76% 2.3 mph NNE3.7 kmh NNE 4.6 mph7.4 kmh 29.78 in1008.5 mb - 0.00 in0.0 mm 0.02 in0.5 mm
09:10 PM 40.4°F4.7°C 34.1°F1.2°C 78% 2.3 mph NNE3.7 kmh NNE 4.6 mph7.4 kmh 29.78 in1008.5 mb - 0.00 in0.0 mm 0.02 in0.5 mm
09:15 PM 40.3°F4.6°C 34.3°F1.3°C 79% 2.3 mph NW3.7 kmh NW 2.3 mph3.7 kmh 29.78 in1008.5 mb - 0.00 in0.0 mm 0.02 in0.5 mm
09:20 PM 40.1°F4.5°C 34.4°F1.3°C 80% 1.2 mph NW1.9 kmh NW 2.3 mph3.7 kmh 29.78 in1008.5 mb - 0.00 in0.0 mm 0.02 in0.5 mm
09:25 PM 40.0°F4.4°C 34.3°F1.3°C 80% 2.3 mph N3.7 kmh N 4.6 mph7.4 kmh 29.78 in1008.5 mb - 0.00 in0.0 mm 0.02 in0.5 mm
09:30 PM 39.9°F4.4°C 34.5°F1.4°C 81% 2.3 mph N3.7 kmh N 4.6 mph7.4 kmh 29.78 in1008.5 mb - 0.00 in0.0 mm 0.02 in0.5 mm
09:35 PM 39.7°F4.3°C 34.7°F1.5°C 82% 3.5 mph NNE5.6 kmh NNE 8.1 mph13.0 kmh 29.78 in1008.5 mb - 0.00 in0.0 mm 0.02 in0.5 mm
09:40 PM 39.4°F4.1°C 34.6°F1.4°C 83% 3.5 mph N5.6 kmh N 4.6 mph7.4 kmh 29.78 in1008.5 mb - 0.00 in0.0 mm 0.02 in0.5 mm
09:45 PM 39.1°F3.9°C 34.7°F1.5°C 84% 2.3 mph N3.7 kmh N 4.6 mph7.4 kmh 29.78 in1008.5 mb - 0.00 in0.0 mm 0.02 in0.5 mm
09:50 PM 38.8°F3.8°C 34.7°F1.5°C 85% 2.3 mph NNE3.7 kmh NNE 6.9 mph11.1 kmh 29.77 in1008.1 mb - 0.00 in0.0 mm 0.02 in0.5 mm
09:55 PM 38.6°F3.7°C 34.8°F1.6°C 86% 2.3 mph N3.7 kmh N 6.9 mph11.1 kmh 29.77 in1008.1 mb - 0.00 in0.0 mm 0.02 in0.5 mm
10:00 PM 38.5°F3.6°C 35.0°F1.7°C 87% 3.5 mph NNE5.6 kmh NNE 8.1 mph13.0 kmh 29.77 in1008.1 mb - 0.00 in0.0 mm 0.02 in0.5 mm
10:10 PM 38.3°F3.5°C 35.1°F1.7°C 88% 2.3 mph N3.7 kmh N 3.5 mph5.6 kmh 29.77 in1008.1 mb - 0.00 in0.0 mm 0.02 in0.5 mm
10:15 PM 38.2°F3.4°C 35.3°F1.8°C 89% 3.5 mph NNW5.6 kmh NNW 4.6 mph7.4 kmh 29.77 in1008.1 mb - 0.00 in0.0 mm 0.02 in0.5 mm
10:20 PM 38.2°F3.4°C 35.2°F1.8°C 89% 2.3 mph NW3.7 kmh NW 4.6 mph7.4 kmh 29.76 in1007.8 mb - 0.00 in0.0 mm 0.02 in0.5 mm
10:25 PM 38.3°F3.5°C 35.6°F2.0°C 90% 2.3 mph N3.7 kmh N 3.5 mph5.6 kmh 29.76 in1007.8 mb - 0.00 in0.0 mm 0.02 in0.5 mm
10:30 PM 38.3°F3.5°C 35.6°F2.0°C 90% 2.3 mph NNW3.7 kmh NNW 4.6 mph7.4 kmh 29.76 in1007.8 mb - 0.00 in0.0 mm 0.02 in0.5 mm
10:35 PM 38.4°F3.6°C 35.7°F2.1°C 90% 1.2 mph N1.9 kmh N 2.3 mph3.7 kmh 29.76 in1007.8 mb - 0.00 in0.0 mm 0.02 in0.5 mm
10:40 PM 38.6°F3.7°C 35.9°F2.2°C 90% 2.3 mph N3.7 kmh N 4.6 mph7.4 kmh 29.76 in1007.8 mb - 0.00 in0.0 mm 0.02 in0.5 mm
10:45 PM 38.6°F3.7°C 36.2°F2.3°C 91% 2.3 mph N3.7 kmh N 5.8 mph9.3 kmh 29.76 in1007.8 mb - 0.00 in0.0 mm 0.02 in0.5 mm
10:50 PM 38.6°F3.7°C 36.2°F2.3°C 91% 4.6 mph NE7.4 kmh NE 9.2 mph14.8 kmh 29.76 in1007.8 mb - 0.00 in0.0 mm 0.02 in0.5 mm
10:55 PM 38.3°F3.5°C 35.9°F2.2°C 91% 3.5 mph N5.6 kmh N 6.9 mph11.1 kmh 29.76 in1007.8 mb - 0.00 in0.0 mm 0.02 in0.5 mm
11:00 PM 38.0°F3.3°C 35.6°F2.0°C 91% 3.5 mph N5.6 kmh N 5.8 mph9.3 kmh 29.76 in1007.8 mb - 0.00 in0.0 mm 0.02 in0.5 mm
11:10 PM 37.3°F2.9°C 34.9°F1.6°C 91% 3.5 mph NE5.6 kmh NE 5.8 mph9.3 kmh 29.76 in1007.8 mb - 0.00 in0.0 mm 0.02 in0.5 mm
11:15 PM 37.0°F2.8°C 34.6°F1.4°C 91% 2.3 mph N3.7 kmh N 3.5 mph5.6 kmh 29.76 in1007.8 mb - 0.00 in0.0 mm 0.02 in0.5 mm
11:20 PM 36.5°F2.5°C 34.2°F1.2°C 91% 4.6 mph NE7.4 kmh NE 4.6 mph7.4 kmh 29.76 in1007.8 mb - 0.00 in0.0 mm 0.02 in0.5 mm
11:25 PM 36.3°F2.4°C 34.2°F1.2°C 92% 3.5 mph NNE5.6 kmh NNE 5.8 mph9.3 kmh 29.75 in1007.5 mb - 0.00 in0.0 mm 0.02 in0.5 mm
11:30 PM 36.1°F2.3°C 34.0°F1.1°C 92% 2.3 mph NE3.7 kmh NE 3.5 mph5.6 kmh 29.75 in1007.5 mb - 0.00 in0.0 mm 0.02 in0.5 mm
11:35 PM 35.9°F2.2°C 33.8°F1.0°C 92% 2.3 mph NE3.7 kmh NE 3.5 mph5.6 kmh 29.75 in1007.5 mb - 0.00 in0.0 mm 0.02 in0.5 mm
11:40 PM 35.9°F2.2°C 34.1°F1.2°C 93% 1.2 mph NE1.9 kmh NE 2.3 mph3.7 kmh 29.75 in1007.5 mb - 0.00 in0.0 mm 0.02 in0.5 mm
11:45 PM 35.8°F2.1°C 34.0°F1.1°C 93% 1.2 mph N1.9 kmh N 3.5 mph5.6 kmh 29.75 in1007.5 mb - 0.00 in0.0 mm 0.02 in0.5 mm
11:50 PM 35.7°F2.1°C 33.9°F1.1°C 93% 3.5 mph NW5.6 kmh NW 4.6 mph7.4 kmh 29.75 in1007.5 mb - 0.00 in0.0 mm 0.02 in0.5 mm
11:55 PM 35.7°F2.1°C 33.9°F1.1°C 93% 2.3 mph N3.7 kmh N 3.5 mph5.6 kmh 29.75 in1007.5 mb - 0.00 in0.0 mm 0.02 in0.5 mm